Portada
METAR-TAF:

METAR-TAF

Aeroports :

Chiang Mai, Tailàndia

latitud: 18-47N, longitud: 098-59E, altitud: 312 m

Observació

L'informe es va fer fa 39 minuts, a les 02:30 UTC
Vent 2 kt amb direcció variable
Temperatura 29°C
Humitat 74%
Pressió 1009 hPa
Visibilitat 10 km o més
Escasses núvols a una alçada de 3500 ft

METAR: VTCC 200230Z VRB02KT 9999 FEW035 29/24 Q1009 NOSIG

Hora: 10:09 (03:09 UTC)

Pronòstic

L'informe es va fer fa 4 hores i 9 minuts, a les 23:00 UTC
Pronòstic vàlid del 20 a les 00 UTC al 21 a les 06 UTC
Vent 5 kt del Sud-Oest
Visibilitat 10 km o més
Núvols disperses a una alçada de 3500 ft
Temporalment
l' 20 a les 08 UTC al 20 a les 14 UTC
Vent 15 kt amb direcció variable amb ràfegues de 25 kt
Visibilitat: 5000 m
Escasses núvols a una alçada de 2000 ft, Cumulonimbus.
Cel ennuvolat a una alçada de 2500 ft
tempesta, pluja

TAF: VTCC 192300Z 2000/2106 22005KT 9999 SCT035 TEMPO 2008/2014 VRB15G25KT 5000 TSRA FEW020CB BKN025

Observacions i pronòstics meteorològics de més de 4000 aeroports (METAR i TAF).

Les estacions disponibles són els punts grocs i vermells al mapa.

Posi el ratolí al punt desitjat per veure el nom de l'estació.

Feu clic per veure les observacions i els pronòstics meteorològics.

Per canviar el mapa: feu clic els botons verds amb una creu de color negre per apropar; al botó verd amb un guió per allunyar la imatge; o en les fletxes verdes per a mapes adjacents.


METAR-TAF: